Time;durP1;ratioP1;P1;durP2;ratioP2;P2;SDS_P1;SDS_P2;PMS_P1;PMS_P2;Temp;Humidity;BMP_temperature;BMP_pressure;BME280_temperature;BME280_humidity;BME280_pressure;Samples;Min_cycle;Max_cycle;Signal;HPM_P1;HPM_P2
2020/12/17 00:01:07;;;;;;;5.70;4.55;;;10.80;81.40;;;;;;5015648;28;20050;-46
2020/12/17 00:03:33;;;;;;;6.63;4.68;;;10.80;81.40;;;;;;5006525;28;20120;-44
2020/12/17 00:05:59;;;;;;;5.45;4.57;;;10.80;81.50;;;;;;5009487;28;20111;-44
2020/12/17 00:08:24;;;;;;;5.68;4.72;;;10.80;81.40;;;;;;5015152;28;20056;-44
2020/12/17 00:10:50;;;;;;;5.18;4.53;;;10.80;81.40;;;;;;5014634;28;20045;-44
2020/12/17 00:13:36;;;;;;;5.05;4.45;;;10.80;81.40;;;;;;5013841;28;20494;-43
2020/12/17 00:16:03;;;;;;;5.47;4.50;;;10.80;81.40;;;;;;5013582;28;20089;-44
2020/12/17 00:18:29;;;;;;;5.18;4.40;;;10.80;81.40;;;;;;5026936;28;20064;-44
2020/12/17 00:21:20;;;;;;;5.32;4.20;;;10.80;81.40;;;;;;5005507;28;20049;-45
2020/12/17 00:24:05;;;;;;;6.40;5.05;;;10.80;81.40;;;;;;5001002;28;20136;-43
2020/12/17 00:26:32;;;;;;;5.97;4.43;;;10.80;81.40;;;;;;5030175;28;20157;-44
2020/12/17 00:29:17;;;;;;;5.40;4.40;;;10.80;81.40;;;;;;5014774;28;20192;-45
2020/12/17 00:31:43;;;;;;;6.70;5.15;;;10.80;81.40;;;;;;5021302;28;20145;-44
2020/12/17 00:34:09;;;;;;;5.22;4.40;;;10.80;81.40;;;;;;5030738;28;20054;-42
2020/12/17 00:36:34;;;;;;;6.70;4.38;;;10.80;81.40;;;;;;5033853;28;20072;-45
2020/12/17 00:39:00;;;;;;;5.88;4.72;;;10.80;81.40;;;;;;5032653;28;20046;-44
2020/12/17 00:41:26;;;;;;;4.80;3.78;;;10.80;81.40;;;;;;5014645;28;20066;-45
2020/12/17 00:43:51;;;;;;;6.72;5.07;;;10.80;81.40;;;;;;5015076;28;20053;-44
2020/12/17 00:46:37;;;;;;;5.30;4.80;;;10.80;81.40;;;;;;5002619;28;20046;-44
2020/12/17 00:49:03;;;;;;;4.85;4.13;;;10.80;81.40;;;;;;5032327;28;20049;-43
2020/12/17 00:51:29;;;;;;;5.40;4.32;;;10.80;81.40;;;;;;5034606;28;20140;-43
2020/12/17 00:53:54;;;;;;;6.63;4.93;;;10.80;81.40;;;;;;5022824;28;20045;-45
2020/12/17 00:56:20;;;;;;;5.00;4.22;;;10.80;81.40;;;;;;5024137;28;20045;-46
2020/12/17 00:59:06;;;;;;;6.68;3.97;;;10.80;81.40;;;;;;5017168;28;20513;-45
2020/12/17 01:01:51;;;;;;;4.50;3.88;;;10.80;81.40;;;;;;5019482;28;20095;-43
2020/12/17 01:04:37;;;;;;;5.72;4.57;;;10.80;81.40;;;;;;5011656;28;20057;-45
2020/12/17 01:07:04;;;;;;;5.57;4.15;;;10.80;81.40;;;;;;5014296;28;20053;-46
2020/12/17 01:09:29;;;;;;;5.32;4.40;;;10.80;81.40;;;;;;5025988;28;20136;-47
2020/12/17 01:11:55;;;;;;;6.03;4.80;;;10.80;81.40;;;;;;5033571;28;20052;-44
2020/12/17 01:14:21;;;;;;;4.63;3.75;;;10.80;81.40;;;;;;5033464;28;20042;-45
2020/12/17 01:16:50;;;;;;;5.25;4.57;;;10.80;81.40;;;;;;5033868;28;20054;-46
2020/12/17 01:19:36;;;;;;;4.68;3.95;;;10.80;81.40;;;;;;5016698;28;20426;-45
2020/12/17 01:22:02;;;;;;;5.88;4.70;;;10.80;81.40;;;;;;5033746;28;20117;-45
2020/12/17 01:24:28;;;;;;;6.20;4.65;;;10.80;81.40;;;;;;5023049;28;20041;-45
2020/12/17 01:27:13;;;;;;;4.72;3.97;;;10.90;81.40;;;;;;4999439;28;20053;-45
2020/12/17 01:29:39;;;;;;;5.40;4.55;;;10.80;81.40;;;;;;5019051;28;20133;-46
2020/12/17 01:32:05;;;;;;;4.70;4.18;;;10.80;81.40;;;;;;5031805;28;20061;-45
2020/12/17 01:34:30;;;;;;;5.28;4.00;;;10.80;81.40;;;;;;5032083;28;20518;-46
2020/12/17 01:36:56;;;;;;;5.78;4.30;;;10.80;81.40;;;;;;5031736;28;20049;-47
2020/12/17 01:39:42;;;;;;;;;;;10.80;81.40;;;;;;5004441;28;20045;-46
2020/12/17 01:42:08;;;;;;;;;;;10.80;81.40;;;;;;5031567;28;19975;-43
2020/12/17 01:44:41;;;;;;;5.50;3.95;;;10.80;81.40;;;;;;5014444;28;19925;-43
2020/12/17 01:47:07;;;;;;;4.38;3.60;;;10.80;81.40;;;;;;5013400;28;20069;-45
2020/12/17 01:49:33;;;;;;;4.97;4.03;;;10.80;81.40;;;;;;5028965;28;20088;-45
2020/12/17 01:51:59;;;;;;;4.85;3.78;;;10.80;81.40;;;;;;5017231;28;20512;-42
2020/12/17 01:54:25;;;;;;;4.63;3.83;;;10.80;81.40;;;;;;5014240;28;20045;-45
2020/12/17 01:57:13;;;;;;;5.55;4.15;;;10.80;81.40;;;;;;4998912;28;20045;-45
2020/12/17 02:00:07;;;;;;;4.80;3.97;;;10.80;81.40;;;;;;5005098;28;20077;-45
2020/12/17 02:02:34;;;;;;;5.57;4.28;;;10.80;81.40;;;;;;5030823;28;20095;-46
2020/12/17 02:05:01;;;;;;;5.63;4.13;;;10.80;81.40;;;;;;5032709;28;20085;-45
2020/12/17 02:07:28;;;;;;;5.32;4.15;;;10.90;81.50;;;;;;5033026;28;20052;-45
2020/12/17 02:10:14;;;;;;;4.82;4.20;;;10.80;81.40;;;;;;5013937;28;20460;-44
2020/12/17 02:13:00;;;;;;;5.13;3.90;;;10.80;81.40;;;;;;4999394;28;20108;-44
2020/12/17 02:15:26;;;;;;;4.22;3.67;;;10.80;81.40;;;;;;5014896;28;20053;-45
2020/12/17 02:17:52;;;;;;;5.03;4.03;;;10.80;81.40;;;;;;5015332;28;20057;-45
2020/12/17 02:20:18;;;;;;;4.30;3.85;;;10.90;81.50;;;;;;5022642;28;20046;-45
2020/12/17 02:22:44;;;;;;;5.30;4.43;;;10.80;81.40;;;;;;5026834;28;20382;-45
2020/12/17 02:25:13;;;;;;;4.47;3.97;;;10.80;81.40;;;;;;5028958;28;20099;-46
2020/12/17 02:27:40;;;;;;;4.80;3.70;;;10.90;81.50;;;;;;5030083;28;20456;-45
2020/12/17 02:30:07;;;;;;;5.10;3.72;;;10.90;82.10;;;;;;5013095;28;20398;-45
2020/12/17 02:32:34;;;;;;;4.90;4.03;;;10.90;81.50;;;;;;5013869;28;20509;-48
2020/12/17 02:34:59;;;;;;;4.80;4.20;;;10.90;81.50;;;;;;5013108;28;20129;-46
2020/12/17 02:37:25;;;;;;;4.68;3.67;;;10.90;81.50;;;;;;5013993;28;20129;-48
2020/12/17 02:39:51;;;;;;;5.85;4.25;;;10.90;81.50;;;;;;5025137;28;20543;-46
2020/12/17 02:42:18;;;;;;;4.72;3.60;;;10.90;81.50;;;;;;5032229;28;20049;-44
2020/12/17 02:45:03;;;;;;;4.72;3.40;;;10.90;81.50;;;;;;5015875;28;20057;-49
2020/12/17 02:47:29;;;;;;;4.15;3.20;;;10.90;81.50;;;;;;5030079;28;20072;-47
2020/12/17 02:50:15;;;;;;;4.72;3.92;;;10.90;81.40;;;;;;4998431;28;20053;-49
2020/12/17 02:52:41;;;;;;;4.80;3.80;;;10.90;81.50;;;;;;5014181;28;20402;-48
2020/12/17 02:55:27;;;;;;;4.82;3.50;;;10.90;81.50;;;;;;5017938;28;20073;-48
2020/12/17 02:57:52;;;;;;;4.60;3.60;;;10.90;81.50;;;;;;5030630;28;20046;-47
2020/12/17 03:00:18;;;;;;;4.85;3.85;;;10.90;81.40;;;;;;5020595;28;20475;-44
2020/12/17 03:02:43;;;;;;;4.78;3.35;;;10.80;81.40;;;;;;5027440;28;20457;-47
2020/12/17 03:05:30;;;;;;;4.85;3.78;;;10.90;81.40;;;;;;5012907;28;20053;-45
2020/12/17 03:07:56;;;;;;;6.13;3.80;;;10.90;81.40;;;;;;5033044;28;20042;-46
2020/12/17 03:10:22;;;;;;;4.93;3.60;;;10.90;81.40;;;;;;5036202;28;20049;-45
2020/12/17 03:12:48;;;;;;;4.63;3.88;;;10.90;81.40;;;;;;5034129;28;20049;-47
2020/12/17 03:15:34;;;;;;;5.10;3.95;;;10.90;81.40;;;;;;5001864;28;20045;-45
2020/12/17 03:17:59;;;;;;;4.30;3.47;;;10.90;81.40;;;;;;5019583;28;20137;-44
2020/12/17 03:20:25;;;;;;;4.32;3.65;;;10.90;81.40;;;;;;5033999;28;20052;-44
2020/12/17 03:22:51;;;;;;;4.57;3.60;;;10.90;81.40;;;;;;5033338;28;20061;-44
2020/12/17 03:25:16;;;;;;;3.83;3.08;;;10.90;81.40;;;;;;5021367;28;20099;-43
2020/12/17 03:27:42;;;;;;;4.47;4.05;;;10.90;81.40;;;;;;5035969;28;20073;-44
2020/12/17 03:30:08;;;;;;;5.43;3.65;;;10.90;81.40;;;;;;5034052;28;20077;-45
2020/12/17 03:32:34;;;;;;;4.28;3.63;;;10.90;81.40;;;;;;5035483;28;20056;-44
2020/12/17 03:35:20;;;;;;;5.10;3.80;;;10.90;81.40;;;;;;5017442;28;20145;-44
2020/12/17 03:38:05;;;;;;;4.00;3.47;;;10.90;81.40;;;;;;5001524;28;20092;-44
2020/12/17 03:40:31;;;;;;;4.22;3.60;;;10.90;81.40;;;;;;5023265;28;20449;-44
2020/12/17 03:42:56;;;;;;;4.40;3.58;;;10.90;81.40;;;;;;5035630;28;20045;-43
2020/12/17 03:45:23;;;;;;;4.50;3.63;;;10.90;81.40;;;;;;5035128;28;20076;-46
2020/12/17 03:47:49;;;;;;;4.03;3.42;;;10.90;81.40;;;;;;5034833;28;20132;-45
2020/12/17 03:50:14;;;;;;;4.45;3.22;;;10.90;81.50;;;;;;5033918;28;20132;-44
2020/12/17 03:52:40;;;;;;;4.97;3.90;;;10.90;81.40;;;;;;5034451;28;20445;-43
2020/12/17 03:55:06;;;;;;;3.92;3.28;;;10.90;81.40;;;;;;5015649;28;20121;-45
2020/12/17 03:57:32;;;;;;;4.90;3.92;;;10.90;81.40;;;;;;5016470;28;20037;-48
2020/12/17 04:00:18;;;;;;;;;;;10.90;81.40;;;;;;5013447;28;20091;-47
2020/12/17 04:02:43;;;;;;;;;;;10.90;81.30;;;;;;5021821;28;19921;-49
2020/12/17 04:05:09;;;;;;;4.23;3.63;;;10.80;81.40;;;;;;5015891;28;19932;-48
2020/12/17 04:07:55;;;;;;;4.40;3.58;;;10.90;81.40;;;;;;5018255;28;20645;-45
2020/12/17 04:10:40;;;;;;;5.03;4.22;;;10.90;81.40;;;;;;5007085;28;20510;-48
2020/12/17 04:13:06;;;;;;;4.32;3.45;;;10.90;81.40;;;;;;5016338;28;20054;-44
2020/12/17 04:15:32;;;;;;;4.80;4.18;;;10.90;81.40;;;;;;5027842;28;20052;-49
2020/12/17 04:17:58;;;;;;;4.75;3.85;;;10.90;81.40;;;;;;5021373;28;20057;-45
2020/12/17 04:20:23;;;;;;;3.55;3.22;;;10.90;81.40;;;;;;5024424;28;20409;-46
2020/12/17 04:22:49;;;;;;;4.68;3.45;;;10.90;81.50;;;;;;5032795;28;20053;-47
2020/12/17 04:25:35;;;;;;;5.13;3.80;;;10.90;81.50;;;;;;5007579;28;20112;-45
2020/12/17 04:28:20;;;;;;;4.32;3.45;;;10.90;81.40;;;;;;5008641;28;20497;-46
2020/12/17 04:30:46;;;;;;;4.80;3.58;;;10.90;81.40;;;;;;5020764;28;20076;-45
2020/12/17 04:33:12;;;;;;;3.50;2.88;;;10.90;81.50;;;;;;5020015;28;20045;-42
2020/12/17 04:35:37;;;;;;;4.25;3.55;;;10.90;81.50;;;;;;5031237;28;20061;-45
2020/12/17 04:38:03;;;;;;;4.10;3.08;;;10.90;81.50;;;;;;5021807;28;20049;-44
2020/12/17 04:40:29;;;;;;;3.65;3.30;;;10.90;82.10;;;;;;5034370;28;20084;-45
2020/12/17 04:43:15;;;;;;;4.70;3.67;;;10.90;81.40;;;;;;5014977;28;20052;-47
2020/12/17 04:45:40;;;;;;;4.60;3.42;;;10.90;81.50;;;;;;5014877;28;20129;-45
2020/12/17 04:48:07;;;;;;;4.20;3.00;;;10.90;81.50;;;;;;5028617;28;20454;-44
2020/12/17 04:50:34;;;;;;;4.50;3.65;;;10.90;81.50;;;;;;5021681;28;20042;-45
2020/12/17 04:53:21;;;;;;;4.68;3.83;;;10.90;81.50;;;;;;5000271;28;20066;-43
2020/12/17 04:55:48;;;;;;;5.07;3.78;;;10.90;81.50;;;;;;5019952;28;20052;-44
2020/12/17 04:58:19;;;;;;;4.65;3.53;;;10.90;81.50;;;;;;5032610;28;20180;-45
2020/12/17 05:00:51;;;;;;;4.43;3.30;;;10.90;81.50;;;;;;5033732;28;20091;-45
2020/12/17 05:03:20;;;;;;;5.07;3.63;;;10.90;81.50;;;;;;5027656;28;20041;-45
2020/12/17 05:05:45;;;;;;;4.15;3.67;;;10.90;81.50;;;;;;5027089;28;20096;-45
2020/12/17 05:08:11;;;;;;;3.65;2.90;;;10.90;81.40;;;;;;5033621;28;20076;-45
2020/12/17 05:10:57;;;;;;;4.32;3.47;;;10.90;81.50;;;;;;5003804;28;20078;-45
2020/12/17 05:13:23;;;;;;;5.30;3.72;;;10.90;81.50;;;;;;5031594;28;20482;-45
2020/12/17 05:15:49;;;;;;;4.32;3.70;;;10.90;81.40;;;;;;5020059;28;20126;-45
2020/12/17 05:18:15;;;;;;;3.75;3.15;;;10.90;81.50;;;;;;5019089;28;20123;-45
2020/12/17 05:20:43;;;;;;;4.65;3.22;;;10.90;81.40;;;;;;5020511;28;20452;-45
2020/12/17 05:23:09;;;;;;;4.07;3.55;;;10.90;81.50;;;;;;5015260;28;20042;-44
2020/12/17 05:25:38;;;;;;;3.92;3.22;;;10.90;81.50;;;;;;5023842;28;20061;-44
2020/12/17 05:28:04;;;;;;;5.63;3.67;;;10.90;81.50;;;;;;5020746;28;20401;-43
2020/12/17 05:30:31;;;;;;;4.30;3.28;;;10.90;81.50;;;;;;5021523;28;20096;-46
2020/12/17 05:33:16;;;;;;;3.90;3.20;;;10.90;81.50;;;;;;5004743;28;20052;-44
2020/12/17 05:36:02;;;;;;;4.60;3.45;;;10.90;81.50;;;;;;5012058;28;20046;-44
2020/12/17 05:38:29;;;;;;;3.70;3.30;;;10.90;81.50;;;;;;5018306;28;20083;-44
2020/12/17 05:41:17;;;;;;;3.90;3.50;;;10.90;81.50;;;;;;5006718;28;20108;-45
2020/12/17 05:43:43;;;;;;;4.07;3.40;;;10.90;81.50;;;;;;5018094;28;20058;-43
2020/12/17 05:46:09;;;;;;;3.88;3.17;;;10.90;81.50;;;;;;5014564;28;20052;-48
2020/12/17 05:48:34;;;;;;;4.45;3.67;;;10.90;81.50;;;;;;5022180;28;20072;-47
2020/12/17 05:51:02;;;;;;;5.13;3.95;;;10.90;81.70;;;;;;5032982;28;20188;-47
2020/12/17 05:53:29;;;;;;;3.97;3.40;;;10.90;81.60;;;;;;5025166;28;20403;-49
2020/12/17 05:56:07;;;;;;;4.32;3.30;;;10.90;81.60;;;;;;5026813;28;20042;-48
2020/12/17 05:58:39;;;;;;;3.97;3.20;;;10.90;81.60;;;;;;5025941;28;20084;-46
2020/12/17 06:01:13;;;;;;;3.45;3.08;;;10.90;81.70;;;;;;5013519;28;20057;-45
2020/12/17 06:04:12;;;;;;;4.00;3.15;;;10.90;81.70;;;;;;4998852;28;20045;-44
2020/12/17 06:06:46;;;;;;;3.88;3.10;;;10.90;81.70;;;;;;5019921;28;20371;-44
2020/12/17 06:09:40;;;;;;;4.03;3.30;;;10.90;81.70;;;;;;5002203;28;20041;-44
2020/12/17 06:12:06;;;;;;;4.93;3.58;;;10.90;81.70;;;;;;5013128;28;20099;-44
2020/12/17 06:14:52;;;;;;;5.05;3.70;;;10.90;81.80;;;;;;4998608;28;20120;-44
2020/12/17 06:17:23;;;;;;;4.30;3.30;;;10.90;81.80;;;;;;5015309;28;20478;-45
2020/12/17 06:19:50;;;;;;;4.78;4.00;;;10.90;81.80;;;;;;5013190;28;20078;-45
2020/12/17 06:22:20;;;;;;;4.32;3.67;;;10.90;81.80;;;;;;5013374;28;20128;-43
2020/12/17 06:25:11;;;;;;;5.18;3.65;;;10.90;81.90;;;;;;5006801;28;20413;-44
2020/12/17 06:27:57;;;;;;;3.58;3.10;;;10.90;81.90;;;;;;5003973;28;20053;-44
2020/12/17 06:30:25;;;;;;;4.22;3.50;;;10.90;81.80;;;;;;5023561;28;20481;-48
2020/12/17 06:32:56;;;;;;;3.85;2.97;;;10.90;81.90;;;;;;5030129;28;20054;-44
2020/12/17 06:35:24;;;;;;;3.97;3.28;;;10.90;81.90;;;;;;5014676;28;20046;-44
2020/12/17 06:37:51;;;;;;;3.97;3.17;;;10.90;81.90;;;;;;5025939;28;20053;-43
2020/12/17 06:40:30;;;;;;;4.28;3.53;;;10.90;81.90;;;;;;5021122;28;20042;-44
2020/12/17 06:42:56;;;;;;;4.18;3.20;;;10.90;81.90;;;;;;5020162;28;20092;-46
2020/12/17 06:45:34;;;;;;;3.88;3.22;;;11.00;82.00;;;;;;5018597;28;20509;-46
2020/12/17 06:48:39;;;;;;;4.35;3.28;;;10.90;82.00;;;;;;5021816;28;20168;-45
2020/12/17 06:51:41;;;;;;;4.30;3.50;;;10.90;82.00;;;;;;5036560;28;20049;-46
2020/12/17 06:54:16;;;;;;;3.70;2.90;;;10.90;82.00;;;;;;5035879;28;20132;-44
2020/12/17 06:57:04;;;;;;;3.22;2.90;;;10.90;82.10;;;;;;5036607;28;20053;-45
2020/12/17 07:00:09;;;;;;;4.13;3.42;;;10.90;82.10;;;;;;5016682;28;20052;-45
2020/12/17 07:02:42;;;;;;;3.23;2.90;;;10.90;82.10;;;;;;5034347;28;20049;-45
2020/12/17 07:05:31;;;;;;;3.97;3.10;;;10.90;82.10;;;;;;5036434;28;20084;-45
2020/12/17 07:07:57;;;;;;;4.63;3.10;;;10.90;82.10;;;;;;5035621;28;20037;-44
2020/12/17 07:10:27;;;;;;;3.80;3.13;;;10.90;82.10;;;;;;5024320;28;20049;-46
2020/12/17 07:12:53;;;;;;;4.28;3.63;;;10.90;82.10;;;;;;5017405;28;20042;-46
2020/12/17 07:15:42;;;;;;;4.15;3.17;;;10.90;82.10;;;;;;5014575;28;20049;-45
2020/12/17 07:18:24;;;;;;;4.10;3.33;;;10.90;82.10;;;;;;5035720;28;20057;-45
2020/12/17 07:21:10;;;;;;;4.22;3.10;;;10.90;82.10;;;;;;5017659;28;20041;-45
2020/12/17 07:23:37;;;;;;;3.40;3.10;;;10.90;82.10;;;;;;5035608;28;20046;-46
2020/12/17 07:26:12;;;;;;;4.25;3.33;;;10.90;82.10;;;;;;5019153;28;20053;-45
2020/12/17 07:28:38;;;;;;;3.42;2.70;;;10.90;82.10;;;;;;5024372;28;20049;-46
2020/12/17 07:31:05;;;;;;;3.45;2.63;;;10.90;82.10;;;;;;5028197;28;20497;-45
2020/12/17 07:33:51;;;;;;;3.40;3.00;;;10.90;82.10;;;;;;5001595;28;20120;-46
2020/12/17 07:36:17;;;;;;;2.75;2.47;;;10.90;82.10;;;;;;5015941;28;20482;-43
2020/12/17 07:38:43;;;;;;;3.05;2.65;;;10.90;82.10;;;;;;5015439;28;20056;-47
2020/12/17 07:41:28;;;;;;;3.22;2.80;;;10.90;82.10;;;;;;5010543;28;20144;-45
2020/12/17 07:43:55;;;;;;;3.47;2.78;;;10.90;82.10;;;;;;5015649;28;20125;-49
2020/12/17 07:46:41;;;;;;;3.40;2.70;;;10.90;82.10;;;;;;5029847;28;20485;-45
2020/12/17 07:49:30;;;;;;;3.42;2.95;;;10.90;82.10;;;;;;5025125;28;20132;-46
2020/12/17 07:51:56;;;;;;;3.47;2.80;;;10.90;82.10;;;;;;5018663;28;20099;-43
2020/12/17 07:54:22;;;;;;;3.67;2.97;;;10.90;82.10;;;;;;5017085;28;20050;-46
2020/12/17 07:56:50;;;;;;;3.20;2.80;;;10.90;82.10;;;;;;5015759;28;20192;-44
2020/12/17 07:59:16;;;;;;;3.63;2.92;;;10.90;82.10;;;;;;5028968;28;20053;-44
2020/12/17 08:01:42;;;;;;;3.25;2.70;;;10.90;82.10;;;;;;5032446;28;20048;-44
2020/12/17 08:04:10;;;;;;;3.17;2.65;;;10.90;82.00;;;;;;5026384;28;20042;-45
2020/12/17 08:06:56;;;;;;;3.17;2.60;;;10.90;82.10;;;;;;5016371;28;20520;-45
2020/12/17 08:09:23;;;;;;;3.28;2.80;;;10.90;82.00;;;;;;5034437;28;20050;-45
2020/12/17 08:11:55;;;;;;;2.95;2.45;;;10.90;82.10;;;;;;5033455;28;20068;-47
2020/12/17 08:14:23;;;;;;;3.00;2.47;;;11.00;82.10;;;;;;5034755;28;20055;-45
2020/12/17 08:17:09;;;;;;;3.63;2.75;;;10.90;82.00;;;;;;5019975;28;20229;-47
2020/12/17 08:19:56;;;;;;;2.90;2.60;;;10.90;82.00;;;;;;5019921;28;20045;-44
2020/12/17 08:22:28;;;;;;;2.58;2.38;;;10.90;82.00;;;;;;5033220;28;20041;-46
2020/12/17 08:24:53;;;;;;;4.63;3.20;;;10.90;82.00;;;;;;5034367;28;20037;-60
2020/12/17 08:27:22;;;;;;;6.35;5.75;;;10.90;82.00;;;;;;5034735;28;20140;-45
2020/12/17 08:30:08;;;;;;;12.63;6.22;;;10.90;82.10;;;;;;5018492;28;20046;-46
2020/12/17 08:32:35;;;;;;;7.75;4.97;;;10.80;82.30;;;;;;5034680;28;20056;-46
2020/12/17 08:35:01;;;;;;;7.30;5.20;;;10.80;82.40;;;;;;5031889;28;20041;-47
2020/12/17 08:37:26;;;;;;;7.13;4.95;;;10.80;82.50;;;;;;5033817;28;20182;-45
2020/12/17 08:39:57;;;;;;;8.18;4.78;;;10.80;82.50;;;;;;5030656;28;20185;-47
2020/12/17 08:42:46;;;;;;;6.40;4.70;;;10.80;82.50;;;;;;5008506;28;20045;-46
2020/12/17 08:45:13;;;;;;;7.50;4.45;;;10.90;82.60;;;;;;5014225;28;20054;-51
2020/12/17 08:48:01;;;;;;;7.75;5.07;;;10.80;82.50;;;;;;4999318;28;20521;-48
2020/12/17 08:50:48;;;;;;;5.72;5.03;;;10.80;82.40;;;;;;5001698;28;20069;-52
2020/12/17 08:53:41;;;;;;;5.30;4.75;;;10.80;82.40;;;;;;4999479;28;20046;-49
2020/12/17 08:56:26;;;;;;;8.32;4.38;;;10.90;82.40;;;;;;4999378;28;20054;-47
2020/12/17 08:58:53;;;;;;;6.85;4.60;;;10.90;82.40;;;;;;5014512;28;20375;-50
2020/12/17 09:01:43;;;;;;;5.35;4.85;;;10.90;82.40;;;;;;5000867;28;20045;-45
2020/12/17 09:04:09;;;;;;;6.50;4.30;;;10.90;82.30;;;;;;5014441;28;20050;-47
2020/12/17 09:06:57;;;;;;;6.40;5.32;;;10.90;82.30;;;;;;4999839;28;20453;-50
2020/12/17 09:09:25;;;;;;;5.90;4.95;;;10.90;82.30;;;;;;5014140;28;20494;-45
2020/12/17 09:12:11;;;;;;;5.82;4.90;;;10.90;82.30;;;;;;5000495;28;20045;-51
2020/12/17 09:14:39;;;;;;;5.97;4.70;;;10.80;82.30;;;;;;5013962;28;20053;-52
2020/12/17 09:17:15;;;;;;;6.03;4.57;;;10.80;82.30;;;;;;5027329;28;20049;-44
2020/12/17 09:19:43;;;;;;;6.18;5.00;;;10.90;82.40;;;;;;5013506;28;20517;-45
2020/12/17 09:22:09;;;;;;;6.68;5.20;;;10.80;82.30;;;;;;5013494;28;20516;-44
2020/12/17 09:24:45;;;;;;;6.53;4.90;;;10.90;82.40;;;;;;5014158;28;20046;-43
2020/12/17 09:27:18;;;;;;;5.90;4.40;;;10.90;82.50;;;;;;5012785;28;20413;-44
2020/12/17 09:30:18;;;;;;;5.60;4.10;;;10.90;82.50;;;;;;4998394;28;20046;-44
2020/12/17 09:33:03;;;;;;;6.60;4.32;;;10.90;82.50;;;;;;4999706;28;20050;-45
2020/12/17 09:35:49;;;;;;;6.05;4.88;;;10.90;82.50;;;;;;5005525;28;20053;-52
2020/12/17 09:38:19;;;;;;;5.43;4.93;;;10.90;82.50;;;;;;5026042;28;20056;-50
2020/12/17 09:40:45;;;;;;;5.25;4.43;;;10.90;82.50;;;;;;5033026;28;20131;-55
2020/12/17 09:43:13;;;;;;;5.78;5.05;;;10.90;82.50;;;;;;5032201;28;20045;-49
2020/12/17 09:45:44;;;;;;;5.20;4.30;;;10.90;82.50;;;;;;5030571;28;20125;-52
2020/12/17 09:48:27;;;;;;;5.35;4.00;;;10.90;82.50;;;;;;5033235;28;20448;-51
2020/12/17 09:51:01;;;;;;;5.43;4.32;;;10.90;82.50;;;;;;5033139;28;20060;-50
2020/12/17 09:53:28;;;;;;;4.63;3.80;;;10.90;82.50;;;;;;5033242;28;20052;-54
2020/12/17 09:55:54;;;;;;;6.13;4.32;;;10.90;82.50;;;;;;5032906;28;20405;-52
2020/12/17 09:58:44;;;;;;;5.97;4.63;;;10.90;82.50;;;;;;5018681;28;20064;-55
2020/12/17 10:01:10;;;;;;;5.15;4.05;;;10.90;82.50;;;;;;5033055;28;20107;-47
2020/12/17 10:03:37;;;;;;;5.15;4.40;;;10.90;82.50;;;;;;5032925;28;20041;-46
2020/12/17 10:06:03;;;;;;;6.22;4.35;;;10.90;82.50;;;;;;5033001;28;20053;-45
2020/12/17 10:08:28;;;;;;;4.25;3.83;;;10.90;82.50;;;;;;5032979;28;20049;-46
2020/12/17 10:11:14;;;;;;;5.60;4.47;;;10.90;82.50;;;;;;5017834;28;20132;-45
2020/12/17 10:14:00;;;;;;;5.05;4.18;;;10.90;82.50;;;;;;5018038;28;20054;-48
2020/12/17 10:16:46;;;;;;;4.68;4.18;;;10.90;82.50;;;;;;5018094;28;20625;-49
2020/12/17 10:19:13;;;;;;;5.68;3.78;;;10.90;82.50;;;;;;5032706;28;20052;-49
2020/12/17 10:21:59;;;;;;;5.63;3.90;;;10.90;82.50;;;;;;5018536;28;20046;-49
2020/12/17 10:24:25;;;;;;;5.15;4.07;;;10.90;82.50;;;;;;5033114;28;20054;-47
2020/12/17 10:26:51;;;;;;;4.38;3.50;;;10.90;82.50;;;;;;5032784;28;20045;-51
2020/12/17 10:29:37;;;;;;;4.45;3.72;;;10.90;82.50;;;;;;5019021;28;20410;-54
2020/12/17 10:32:22;;;;;;;5.13;3.47;;;10.90;82.50;;;;;;5019084;28;20041;-48
2020/12/17 10:34:48;;;;;;;3.58;3.28;;;10.90;82.50;;;;;;5032790;28;20414;-48
2020/12/17 10:37:14;;;;;;;6.05;4.00;;;10.90;82.40;;;;;;5027424;28;20091;-47
2020/12/17 10:39:42;;;;;;;4.72;3.70;;;10.90;82.50;;;;;;5032347;28;20059;-47
2020/12/17 10:42:08;;;;;;;4.35;3.65;;;10.90;82.50;;;;;;5032453;28;20076;-45
2020/12/17 10:44:54;;;;;;;4.63;4.22;;;10.90;82.40;;;;;;5016814;28;20080;-49
2020/12/17 10:47:19;;;;;;;5.55;3.83;;;10.90;82.50;;;;;;5032035;28;20169;-50
2020/12/17 10:49:46;;;;;;;4.07;3.55;;;10.90;82.40;;;;;;5030229;28;20124;-51
2020/12/17 10:52:32;;;;;;;4.45;3.65;;;10.90;82.50;;;;;;5031655;28;20441;-51
2020/12/17 10:54:58;;;;;;;4.28;3.85;;;10.90;82.40;;;;;;5032405;28;20041;-50
2020/12/17 10:57:44;;;;;;;;;;;11.00;82.50;;;;;;5030985;28;20053;-49
2020/12/17 11:00:09;;;;;;;5.40;3.90;;;10.90;82.40;;;;;;5032211;28;20336;-52
2020/12/17 11:02:35;;;;;;;4.72;4.07;;;10.90;82.40;;;;;;5030912;28;20049;-51
2020/12/17 11:05:21;;;;;;;3.42;2.90;;;10.90;82.40;;;;;;5030566;28;20555;-48
2020/12/17 11:07:46;;;;;;;3.50;3.17;;;11.00;82.40;;;;;;5029583;28;20033;-45
2020/12/17 11:10:32;;;;;;;3.90;3.22;;;11.00;82.40;;;;;;5015858;28;20131;-50
2020/12/17 11:12:58;;;;;;;4.07;2.95;;;10.90;82.30;;;;;;5031304;28;20485;-47
2020/12/17 11:15:23;;;;;;;3.60;3.15;;;11.00;82.40;;;;;;5032515;28;20061;-50
2020/12/17 11:17:49;;;;;;;3.47;2.90;;;10.90;82.40;;;;;;5038946;28;20055;-48
2020/12/17 11:20:18;;;;;;;4.32;3.20;;;11.00;82.40;;;;;;5050946;28;20508;-51
2020/12/17 11:22:44;;;;;;;3.58;3.10;;;11.00;82.30;;;;;;5052952;28;20124;-52
2020/12/17 11:25:30;;;;;;;3.92;3.53;;;10.90;82.30;;;;;;5040643;28;20049;-50
2020/12/17 11:27:55;;;;;;;4.18;3.13;;;11.00;82.40;;;;;;5055169;28;20055;-46
2020/12/17 11:30:21;;;;;;;3.33;3.03;;;11.00;82.40;;;;;;5055334;28;20128;-48
2020/12/17 11:32:46;;;;;;;4.05;3.45;;;11.00;82.30;;;;;;5055464;28;20107;-47
2020/12/17 11:35:12;;;;;;;4.20;3.17;;;11.00;82.30;;;;;;5054531;28;20049;-46
2020/12/17 11:37:38;;;;;;;4.20;3.10;;;11.00;82.30;;;;;;5055432;28;20080;-49
2020/12/17 11:40:24;;;;;;;3.92;3.42;;;11.00;82.30;;;;;;5000458;28;20053;-46
2020/12/17 11:42:51;;;;;;;3.50;3.15;;;11.00;82.20;;;;;;5034947;28;20052;-49
2020/12/17 11:45:37;;;;;;;3.40;3.10;;;11.00;82.20;;;;;;5034491;28;20049;-47
2020/12/17 11:48:03;;;;;;;3.85;3.22;;;11.00;82.20;;;;;;5035717;28;20400;-53
2020/12/17 11:50:28;;;;;;;3.35;2.97;;;11.00;82.20;;;;;;5034280;28;20049;-50
2020/12/17 11:53:14;;;;;;;3.35;2.90;;;11.00;82.20;;;;;;5034546;28;20080;-48
2020/12/17 11:56:00;;;;;;;3.63;3.22;;;11.00;82.20;;;;;;5034056;28;20445;-45
2020/12/17 11:58:26;;;;;;;3.95;3.10;;;11.00;82.20;;;;;;5034301;28;20042;-51
2020/12/17 12:00:51;;;;;;;3.45;2.92;;;11.00;82.20;;;;;;5031955;28;20379;-48
2020/12/17 12:03:37;;;;;;;3.40;2.95;;;11.00;82.20;;;;;;5008062;28;20058;-50
2020/12/17 12:06:04;;;;;;;3.05;2.50;;;11.00;82.10;;;;;;5014515;28;20095;-47
2020/12/17 12:08:29;;;;;;;4.72;3.20;;;11.00;82.20;;;;;;5015000;28;20446;-45
2020/12/17 12:10:55;;;;;;;3.67;3.08;;;11.00;82.20;;;;;;5021287;28;20049;-50
2020/12/17 12:13:21;;;;;;;3.20;2.90;;;11.00;82.20;;;;;;5034131;28;20525;-50
2020/12/17 12:15:50;;;;;;;3.45;2.80;;;11.10;82.20;;;;;;5029030;28;20140;-45
2020/12/17 12:18:35;;;;;;;3.63;2.92;;;11.00;82.10;;;;;;4992629;28;20083;-47
2020/12/17 12:21:02;;;;;;;3.20;2.67;;;11.00;82.10;;;;;;5022467;28;20395;-44
2020/12/17 12:23:47;;;;;;;4.07;3.20;;;11.00;82.10;;;;;;5019536;28;20048;-49
2020/12/17 12:26:13;;;;;;;3.65;2.80;;;11.00;82.10;;;;;;5033413;28;20486;-47
2020/12/17 12:28:40;;;;;;;3.53;2.70;;;11.10;82.10;;;;;;5033762;28;20049;-44
2020/12/17 12:31:07;;;;;;;2.97;2.60;;;11.00;82.10;;;;;;5033362;28;20045;-48
2020/12/17 12:33:52;;;;;;;3.05;2.75;;;11.00;82.00;;;;;;5017717;28;20080;-44
2020/12/17 12:36:18;;;;;;;3.55;2.83;;;11.00;82.00;;;;;;5029366;28;20092;-46
2020/12/17 12:38:44;;;;;;;3.70;2.85;;;11.00;82.00;;;;;;5033759;28;20046;-50
2020/12/17 12:41:09;;;;;;;2.42;2.22;;;11.00;82.00;;;;;;5032042;28;20049;-51
2020/12/17 12:43:35;;;;;;;3.25;2.95;;;11.10;82.10;;;;;;5043972;28;20139;-48
2020/12/17 12:46:01;;;;;;;3.92;2.97;;;11.10;82.00;;;;;;5053481;28;20098;-50
2020/12/17 12:48:47;;;;;;;2.78;2.22;;;11.10;82.00;;;;;;5037803;28;20489;-53
2020/12/17 12:51:13;;;;;;;2.88;2.58;;;11.10;82.00;;;;;;5048836;28;20041;-49
2020/12/17 12:53:39;;;;;;;3.10;2.58;;;11.10;82.00;;;;;;5053509;28;20492;-50
2020/12/17 12:56:05;;;;;;;2.80;2.22;;;11.10;82.00;;;;;;5052522;28;20056;-45
2020/12/17 12:58:30;;;;;;;3.15;2.85;;;11.00;81.90;;;;;;5049881;28;20088;-50
2020/12/17 13:00:56;;;;;;;3.20;2.50;;;11.10;82.00;;;;;;5052956;28;20064;-52
2020/12/17 13:03:22;;;;;;;3.30;3.00;;;11.00;81.90;;;;;;5052341;28;20124;-52
2020/12/17 13:05:48;;;;;;;2.80;2.50;;;11.10;81.90;;;;;;5052912;28;20106;-51
2020/12/17 13:08:14;;;;;;;2.92;2.40;;;11.10;81.90;;;;;;5035255;28;20441;-48
2020/12/17 13:10:40;;;;;;;2.80;2.33;;;11.10;81.90;;;;;;5020055;28;20444;-51
2020/12/17 13:13:07;;;;;;;2.67;2.40;;;11.00;81.90;;;;;;5030532;28;20046;-49
2020/12/17 13:15:36;;;;;;;2.70;2.30;;;11.10;81.90;;;;;;5033645;28;20073;-52